• Join FlightAware (Why Join?)
  • Login
  • US Flag GB Flag 
11:03 EDT


 

Airport Tracker/Info


-or-


 

Live Flight TrackerFlight Track Log ✈ RPA976 ✈ 16-Apr-2012 ✈ KASE - KDEN

Flight Track Log - Related Links

Times and Time Zones

All times are in EDT time to prevent confusion due to time zone crossing. See the RPA976 flight status page for this flight to view local times or setup timezone preferences in your user account.

Time Position Orientation Groundspeed Altitude Reporting Facility
EDT Latitude Longitude Course Direction KTS MPH feet Rate Location/Type
09:13 39.2592 -106.8861 286° West 168 193 9,600  Level Denver Center
09:14 39.2717 -106.9425 323° Northwest 184 212 12,100 2,400 Climbing Denver Center
09:15 39.3047 -106.9750 61° Northeast 199 229 14,400 2,100 Climbing Denver Center
09:16 39.3342 -106.9053 84° East 241 277 16,400 2,040 Climbing Denver Center
09:17 39.3408 -106.8194 88° East 241 277 18,500 1,800 Climbing Denver Center
09:18 39.3431 -106.7308 94° East 241 277 20,000 1,320 Climbing Denver Center
09:19 39.3392 -106.6503 87° East 236 272 21,200 1,200 Climbing Denver Center
09:20 39.3433 -106.5536 93° East 252 290 22,500 900 Climbing Denver Center
09:21 39.3392 -106.4383 103° East 282 325 23,000 240 Climbing Denver Center
09:22 39.3183 -106.3228 94° East 313 360 23,000  Level Denver Center
09:23 39.3119 -106.2075 92° East 346 398 23,000  Level Denver Center
09:24 39.3072 -106.0600 95° East 368 423 23,100  Climbing Denver Center
09:25 39.2983 -105.9286 94° East 368 423 23,000 -420 Descending Denver Center
09:26 39.2914 -105.7997 95° East 368 423 22,300 -1,260 Descending Denver Center
09:27 39.2822 -105.6658 96° East 369 425 20,500 -1,860 Descending Denver Center
09:28 39.2708 -105.5344 94° East 369 425 18,600 -1,800 Descending Denver Center
09:29 39.2633 -105.4006 83° East 369 425 17,000 -1,320 Descending Denver Center
09:30 39.2747 -105.2822 55° Northeast 346 398 16,000 -660 Descending Denver Center
09:31 39.3219 -105.1956 48° Northeast 324 373 15,700 -840 Descending Denver Center
09:32 39.3833 -105.1058 62° Northeast 324 373 14,400 -1,320 Descending Denver Center
09:33 39.4239 -105.0083 80° East 319 367 13,100 -720 Descending Denver Center
09:34 39.4372 -104.9086 45° Northeast 294 338 13,000 -120 Descending Denver Center
09:35 39.4864 -104.8456 36° Northeast 247 284 12,900 -720 Descending Denver Center
09:36 39.5419 -104.7931 33° Northeast 241 277 11,600 -1,260 Descending Denver Center
09:37 39.6036 -104.7403 34° Northeast 241 277 10,400 -1,260 Descending Denver Center
09:38 39.6611 -104.6903 14° North 241 277 9,100 -1,320 Descending Denver Center
09:39 39.7333 -104.6667 360° North 210 242 7,500 -1,200 Descending Denver TRACON
09:40 39.7667 -104.6667 360° North 167 192 6,600 -840 Descending Denver TRACON
09:41 39.8000 -104.6667 360° North 131 151 6,000 -720 Descending Denver TRACON